createdAt,value
2022-12-06T00:02:14.861Z,10.05
2022-12-06T00:05:21.508Z,11.53
2022-12-06T00:08:27.138Z,5.28
2022-12-06T00:11:34.985Z,9.98
2022-12-06T00:14:39.970Z,4.67
2022-12-06T00:17:45.910Z,6.17
2022-12-06T00:20:50.998Z,5.95
2022-12-06T00:23:59.380Z,14.63
2022-12-06T00:27:04.758Z,11.50
2022-12-06T00:30:10.627Z,9.03
2022-12-06T00:33:16.685Z,7.95
2022-12-06T00:36:25.858Z,10.63
2022-12-06T00:39:33.426Z,16.52
2022-12-06T00:42:39.186Z,11.97
2022-12-06T00:45:43.880Z,10.38
2022-12-06T00:48:49.316Z,6.00
2022-12-06T00:51:55.500Z,8.95
2022-12-06T00:55:01.515Z,16.87
2022-12-06T00:58:00.544Z,12.28
2022-12-06T01:04:07.199Z,10.03
2022-12-06T01:07:12.475Z,13.75
2022-12-06T01:10:18.346Z,9.23
2022-12-06T01:13:24.190Z,12.30
2022-12-06T01:16:34.455Z,8.35
2022-12-06T01:19:41.057Z,6.22
2022-12-06T01:22:46.250Z,8.73
2022-12-06T01:25:51.891Z,8.23
2022-12-06T01:28:57.457Z,4.53
2022-12-06T01:32:02.389Z,9.30
2022-12-06T01:35:08.322Z,10.58
2022-12-06T01:38:15.012Z,4.75
2022-12-06T01:41:20.970Z,5.22
2022-12-06T01:44:59.690Z,7.70
2022-12-06T01:48:05.384Z,13.38
2022-12-06T01:51:11.172Z,12.85
2022-12-06T01:54:18.274Z,11.93
2022-12-06T01:57:25.120Z,6.85
2022-12-06T02:00:30.819Z,17.07
2022-12-06T02:03:38.450Z,12.95
2022-12-06T02:06:44.930Z,16.05
2022-12-06T02:09:50.519Z,8.48
2022-12-06T02:12:56.083Z,11.45
2022-12-06T02:16:24.402Z,12.05
2022-12-06T02:19:53.336Z,8.75
2022-12-06T02:23:40.999Z,5.60
2022-12-06T02:27:03.380Z,7.87
2022-12-06T02:30:28.627Z,7.35
2022-12-06T02:33:41.705Z,8.55
2022-12-06T02:37:06.513Z,10.68
2022-12-06T02:40:21.520Z,15.53
2022-12-06T02:43:31.540Z,7.78
2022-12-06T02:49:42.589Z,9.25
2022-12-06T02:52:48.429Z,15.15
2022-12-06T02:55:54.515Z,17.40
2022-12-06T02:59:00.403Z,12.82
2022-12-06T03:02:10.729Z,8.40
2022-12-06T03:05:24.349Z,11.93
2022-12-06T03:08:33.978Z,15.85
2022-12-06T03:11:44.046Z,11.45
2022-12-06T03:14:53.868Z,6.53
2022-12-06T03:18:09.225Z,15.48
2022-12-06T03:21:25.704Z,13.35
2022-12-06T03:24:31.229Z,6.85
2022-12-06T03:27:37.361Z,15.70
2022-12-06T03:30:42.387Z,10.23
2022-12-06T03:33:48.843Z,7.30
2022-12-06T03:36:48.235Z,15.03
2022-12-06T03:39:57.231Z,11.08
2022-12-06T03:43:03.261Z,18.57
2022-12-06T03:46:16.119Z,11.97
2022-12-06T03:49:26.655Z,7.90
2022-12-06T03:52:33.046Z,7.87
2022-12-06T03:55:39.063Z,12.03
2022-12-06T03:58:44.572Z,16.80
2022-12-06T04:01:49.300Z,7.30
2022-12-06T04:04:56.360Z,12.30
2022-12-06T04:08:01.823Z,13.00
2022-12-06T04:11:07.565Z,10.13
2022-12-06T04:14:13.033Z,11.48
2022-12-06T04:17:36.944Z,15.88
2022-12-06T04:21:00.772Z,5.22
2022-12-06T04:24:07.443Z,15.65
2022-12-06T04:27:30.728Z,7.45
2022-12-06T04:30:54.069Z,10.82
2022-12-06T04:34:17.780Z,26.15
2022-12-06T04:37:40.472Z,3.25
2022-12-06T04:40:40.035Z,6.62
2022-12-06T04:43:51.951Z,7.08
2022-12-06T04:46:58.827Z,8.60
2022-12-06T04:50:04.949Z,2.62
2022-12-06T04:53:09.928Z,8.40
2022-12-06T04:56:15.084Z,13.15
2022-12-06T04:59:21.335Z,8.63
2022-12-06T05:02:28.451Z,9.78
2022-12-06T05:05:33.374Z,8.98
2022-12-06T05:08:38.899Z,6.60
2022-12-06T05:11:47.714Z,4.45
2022-12-06T05:14:54.017Z,13.15
2022-12-06T05:17:53.231Z,7.00
2022-12-06T05:20:46.408Z,6.30
2022-12-06T05:23:52.110Z,10.28
2022-12-06T05:26:58.512Z,5.62
2022-12-06T05:29:57.949Z,8.80
2022-12-06T05:33:03.144Z,5.15
2022-12-06T05:36:08.384Z,8.95
2022-12-06T05:39:15.001Z,6.92
2022-12-06T05:42:22.423Z,6.60
2022-12-06T05:45:27.477Z,8.95
2022-12-06T05:48:32.767Z,6.58
2022-12-06T05:51:38.871Z,7.50
2022-12-06T05:54:43.894Z,8.90
2022-12-06T05:57:50.306Z,12.43
2022-12-06T06:00:56.025Z,14.07
2022-12-06T06:04:01.833Z,10.72
2022-12-06T06:07:07.950Z,15.20
2022-12-06T06:10:13.333Z,14.53
2022-12-06T06:13:19.124Z,17.90
2022-12-06T06:16:25.195Z,10.82
2022-12-06T06:19:30.806Z,6.65
2022-12-06T06:22:36.802Z,21.02
2022-12-06T06:25:42.977Z,22.17
2022-12-06T06:28:47.822Z,11.22
2022-12-06T06:31:53.636Z,12.50
2022-12-06T06:34:59.270Z,18.25
2022-12-06T06:38:04.677Z,7.22
2022-12-06T06:41:11.051Z,8.00
2022-12-06T06:44:16.863Z,8.38
2022-12-06T06:47:23.381Z,12.70
2022-12-06T06:50:29.019Z,9.33
2022-12-06T06:53:34.752Z,23.65
2022-12-06T06:56:40.223Z,9.45
2022-12-06T06:59:45.860Z,20.85
2022-12-06T07:02:50.978Z,11.03
2022-12-06T07:05:57.091Z,5.12
2022-12-06T07:09:04.427Z,11.33
2022-12-06T07:12:10.148Z,5.35
2022-12-06T07:15:09.601Z,16.42
2022-12-06T07:18:16.269Z,9.78
2022-12-06T07:21:22.551Z,11.20
2022-12-06T07:24:27.426Z,23.77
2022-12-06T07:27:32.488Z,23.67
2022-12-06T07:30:39.271Z,30.15
2022-12-06T07:33:45.863Z,8.35
2022-12-06T07:36:51.481Z,10.23
2022-12-06T07:39:57.996Z,46.42
2022-12-06T08:24:11.038Z,9.55
2022-12-06T08:27:17.112Z,15.05
2022-12-06T08:30:16.790Z,11.48
2022-12-06T08:33:03.179Z,10.03
2022-12-06T08:35:58.055Z,14.07
2022-12-06T08:38:52.422Z,18.55
2022-12-06T08:42:07.776Z,11.67
2022-12-06T08:45:13.459Z,13.58
2022-12-06T08:48:18.991Z,10.53
2022-12-06T08:51:25.318Z,5.12
2022-12-06T08:54:32.682Z,11.22
2022-12-06T08:57:38.296Z,5.05
2022-12-06T09:00:44.157Z,6.12
2022-12-06T09:03:53.683Z,9.98
2022-12-06T09:06:59.047Z,10.05
2022-12-06T09:10:07.417Z,9.75
2022-12-06T09:13:13.974Z,11.28
2022-12-06T09:16:29.527Z,7.75
2022-12-06T09:19:35.646Z,7.70
2022-12-06T09:22:41.458Z,2.65
2022-12-06T09:25:47.023Z,6.60
2022-12-06T09:28:56.469Z,4.03
2022-12-06T09:32:01.457Z,5.72
2022-12-06T09:35:12.306Z,6.87
2022-12-06T09:38:07.422Z,11.12
2022-12-06T09:41:40.359Z,7.72
2022-12-06T09:45:26.369Z,4.90
2022-12-06T09:49:15.784Z,10.58
2022-12-06T09:52:30.476Z,5.55
2022-12-06T09:56:02.432Z,5.35
2022-12-06T09:59:30.170Z,4.95
2022-12-06T10:03:23.970Z,7.40
2022-12-06T10:06:36.773Z,6.72
2022-12-06T10:10:06.546Z,7.05
2022-12-06T10:13:50.807Z,5.28
2022-12-06T10:17:28.641Z,7.60
2022-12-06T10:20:51.184Z,4.87
2022-12-06T10:24:23.568Z,8.98
2022-12-06T10:27:57.065Z,3.77
2022-12-06T10:31:11.174Z,8.03
2022-12-06T10:34:30.041Z,2.27
2022-12-06T10:37:52.461Z,4.40
2022-12-06T10:41:11.673Z,6.67
2022-12-06T10:44:26.700Z,3.83
2022-12-06T10:47:51.803Z,6.92
2022-12-06T10:50:57.555Z,5.78
2022-12-06T10:54:07.946Z,6.05
2022-12-06T10:57:16.882Z,4.75
2022-12-06T11:00:38.502Z,5.65
2022-12-06T11:04:02.656Z,7.37
2022-12-06T11:07:11.036Z,4.62
2022-12-06T11:10:15.331Z,2.67
2022-12-06T11:13:57.345Z,5.83
2022-12-06T11:17:33.532Z,2.47
2022-12-06T11:20:44.311Z,5.72
2022-12-06T11:24:16.507Z,5.37
2022-12-06T11:27:29.655Z,5.45
2022-12-06T11:30:34.885Z,4.30
2022-12-06T11:33:41.957Z,5.55
2022-12-06T11:36:48.043Z,3.77
2022-12-06T11:39:54.176Z,2.25
2022-12-06T11:43:00.332Z,6.40
2022-12-06T11:46:06.728Z,6.35
2022-12-06T11:49:19.006Z,2.37
2022-12-06T11:52:39.921Z,6.30
2022-12-06T11:55:57.101Z,9.60
2022-12-06T11:59:29.378Z,13.68
2022-12-06T12:02:46.097Z,10.23
2022-12-06T12:05:53.112Z,8.53
2022-12-06T12:09:12.822Z,4.85
2022-12-06T12:12:25.038Z,11.18
2022-12-06T12:15:34.143Z,9.83
2022-12-06T12:18:44.020Z,5.05
2022-12-06T12:21:56.214Z,8.13
2022-12-06T12:25:18.792Z,16.85
2022-12-06T12:28:17.561Z,17.00
2022-12-06T12:31:37.703Z,10.78
2022-12-06T12:34:44.557Z,15.25
2022-12-06T12:37:49.500Z,12.45
2022-12-06T12:41:07.891Z,7.60
2022-12-06T12:44:37.173Z,16.12
2022-12-06T12:47:33.258Z,11.33
2022-12-06T12:50:38.691Z,9.50
2022-12-06T12:53:53.313Z,7.65
2022-12-06T12:57:00.075Z,9.45
2022-12-06T13:00:06.534Z,7.78
2022-12-06T13:03:49.362Z,6.92
2022-12-06T13:06:46.116Z,4.40
2022-12-06T13:10:20.118Z,2.35
2022-12-06T13:13:34.456Z,4.83
2022-12-06T13:16:46.552Z,5.67
2022-12-06T13:19:54.452Z,7.25
2022-12-06T13:22:53.933Z,12.68
2022-12-06T13:26:10.176Z,10.05
2022-12-06T13:29:23.504Z,11.33
2022-12-06T13:32:33.469Z,10.68
2022-12-06T13:35:52.973Z,14.90
2022-12-06T13:38:59.047Z,81.97
2022-12-06T13:42:27.454Z,6.97
2022-12-06T13:45:51.871Z,23.00
2022-12-06T19:20:54.361Z,25.88
2022-12-06T19:24:01.161Z,34.13
2022-12-06T19:27:10.523Z,14.38
2022-12-06T19:30:16.617Z,13.25
2022-12-06T19:33:22.853Z,12.33
2022-12-06T19:36:42.684Z,12.70
2022-12-06T19:39:41.780Z,15.35
2022-12-06T19:43:06.535Z,14.90
2022-12-06T19:46:15.904Z,19.17
2022-12-06T19:49:21.428Z,13.22
2022-12-06T19:52:30.845Z,17.70
2022-12-06T19:55:33.875Z,12.98
2022-12-06T19:58:39.238Z,16.32
2022-12-06T20:01:44.923Z,25.57
2022-12-06T20:04:46.362Z,24.02
2022-12-06T20:07:52.136Z,21.27
2022-12-06T20:10:57.497Z,30.95
2022-12-06T20:14:03.049Z,20.00
2022-12-06T20:17:08.407Z,32.08
2022-12-06T20:20:13.656Z,22.65
2022-12-06T20:23:20.765Z,19.67
2022-12-06T20:26:26.799Z,24.63
2022-12-06T20:29:33.742Z,21.05
2022-12-06T20:32:39.183Z,35.25
2022-12-06T20:35:44.211Z,32.35
2022-12-06T20:38:49.667Z,22.05
2022-12-06T20:41:54.688Z,25.35
2022-12-06T20:45:01.177Z,39.83
2022-12-06T20:48:08.310Z,30.85
2022-12-06T20:51:14.456Z,23.95
2022-12-06T20:54:14.252Z,57.70
2022-12-06T20:57:06.463Z,49.38
2022-12-06T21:00:12.348Z,50.80
2022-12-06T21:03:18.301Z,38.75
2022-12-06T21:06:25.044Z,23.20
2022-12-06T21:09:30.554Z,54.38
2022-12-06T21:12:36.706Z,30.65
2022-12-06T21:15:41.855Z,44.93
2022-12-06T21:18:46.703Z,28.92
2022-12-06T21:21:54.363Z,42.45
2022-12-06T21:25:01.574Z,44.93
2022-12-06T21:28:07.341Z,43.75
2022-12-06T21:31:12.933Z,33.83
2022-12-06T21:34:18.636Z,40.35
2022-12-06T21:37:23.791Z,39.63
2022-12-06T21:40:28.800Z,26.95
2022-12-06T21:43:34.862Z,22.75
2022-12-06T21:46:41.200Z,32.30
2022-12-06T21:49:46.516Z,30.02
2022-12-06T21:52:52.065Z,28.02
2022-12-06T21:55:57.352Z,29.67
2022-12-06T21:59:02.947Z,26.45
2022-12-06T22:02:02.179Z,30.43
2022-12-06T22:05:10.162Z,23.90
2022-12-06T22:08:19.410Z,34.10
2022-12-06T22:11:30.142Z,17.92
2022-12-06T22:14:35.941Z,13.80
2022-12-06T22:17:42.024Z,16.10
2022-12-06T22:20:47.735Z,21.17
2022-12-06T22:23:53.239Z,25.65
2022-12-06T22:26:59.502Z,21.95
2022-12-06T22:30:04.750Z,14.10
2022-12-06T22:33:10.048Z,15.03
2022-12-06T22:36:15.232Z,21.25
2022-12-06T22:39:21.581Z,18.98
2022-12-06T22:42:28.284Z,19.75
2022-12-06T22:45:33.468Z,21.82
2022-12-06T22:48:39.509Z,23.15
2022-12-06T22:51:51.096Z,24.40
2022-12-06T22:54:56.785Z,19.90
2022-12-06T22:58:01.826Z,22.13
2022-12-06T23:01:07.137Z,17.15
2022-12-06T23:04:13.777Z,24.77
2022-12-06T23:07:18.622Z,27.37
2022-12-06T23:10:17.938Z,43.83
2022-12-06T23:13:03.901Z,34.03
2022-12-06T23:16:03.108Z,31.95
2022-12-06T23:19:02.425Z,21.37
2022-12-06T23:22:07.912Z,34.40
2022-12-06T23:25:13.540Z,29.55
2022-12-06T23:28:18.265Z,22.35
2022-12-06T23:31:35.281Z,25.40
2022-12-06T23:34:41.177Z,14.85
2022-12-06T23:37:47.770Z,25.52
2022-12-06T23:40:53.306Z,28.70
2022-12-06T23:43:59.080Z,38.00
2022-12-06T23:47:04.468Z,24.67
2022-12-06T23:50:09.518Z,22.95
2022-12-06T23:53:14.494Z,17.75
2022-12-06T23:56:30.437Z,18.73
2022-12-06T23:59:35.409Z,11.48
